createdAt,value
2022-10-13T00:04:16.392Z,16.63
2022-10-13T00:09:18.094Z,13.88
2022-10-13T00:14:19.692Z,13.50
2022-10-13T00:19:21.412Z,15.98
2022-10-13T00:24:23.126Z,13.68
2022-10-13T00:29:25.101Z,19.50
2022-10-13T00:34:26.703Z,14.27
2022-10-13T00:39:28.391Z,11.10
2022-10-13T00:44:57.862Z,14.48
2022-10-13T00:50:00.120Z,15.20
2022-10-13T00:55:03.152Z,18.10
2022-10-13T01:00:07.088Z,14.57
2022-10-13T01:05:08.980Z,15.32
2022-10-13T01:10:10.634Z,17.52
2022-10-13T01:15:39.695Z,11.25
2022-10-13T01:20:55.461Z,15.10
2022-10-13T01:26:10.087Z,17.63
2022-10-13T01:31:23.822Z,13.63
2022-10-13T01:36:36.932Z,14.88
2022-10-13T01:41:42.111Z,13.55
2022-10-13T01:46:45.193Z,16.23
2022-10-13T01:51:48.298Z,14.05
2022-10-13T01:56:54.579Z,13.90
2022-10-13T02:02:25.032Z,13.13
2022-10-13T02:07:46.246Z,17.02
2022-10-13T02:13:00.629Z,15.05
2022-10-13T02:18:04.349Z,14.27
2022-10-13T02:23:12.567Z,13.98
2022-10-13T02:28:15.445Z,12.23
2022-10-13T02:33:17.525Z,12.55
2022-10-13T02:38:19.209Z,11.60
2022-10-13T02:43:20.902Z,12.85
2022-10-13T02:48:22.680Z,13.80
2022-10-13T02:53:25.579Z,13.98
2022-10-13T02:58:28.182Z,12.75
2022-10-13T03:03:30.607Z,13.32
2022-10-13T03:08:33.763Z,15.70
2022-10-13T03:13:37.146Z,16.73
2022-10-13T03:18:41.156Z,19.50
2022-10-13T03:23:42.784Z,16.25
2022-10-13T03:28:49.294Z,20.45
2022-10-13T03:33:51.657Z,17.73
2022-10-13T03:38:53.217Z,18.65
2022-10-13T03:43:55.205Z,19.25
2022-10-13T03:48:56.826Z,19.58
2022-10-13T03:53:58.709Z,19.02
2022-10-13T03:59:01.067Z,16.55
2022-10-13T04:04:03.318Z,18.75
2022-10-13T04:09:05.572Z,20.02
2022-10-13T04:14:07.502Z,17.83
2022-10-13T04:19:12.483Z,17.40
2022-10-13T04:24:14.999Z,20.55
2022-10-13T04:29:16.672Z,18.52
2022-10-13T04:34:18.423Z,18.65
2022-10-13T04:39:20.052Z,19.13
2022-10-13T04:44:23.894Z,18.33
2022-10-13T04:49:25.602Z,22.17
2022-10-13T04:54:27.307Z,20.08
2022-10-13T04:59:29.212Z,23.45
2022-10-13T05:04:30.868Z,17.98
2022-10-13T05:09:32.457Z,18.67
2022-10-13T05:14:35.063Z,20.58
2022-10-13T05:19:38.334Z,21.70
2022-10-13T05:24:40.863Z,22.00
2022-10-13T05:29:42.798Z,20.27
2022-10-13T05:34:44.368Z,21.35
2022-10-13T05:39:48.884Z,17.85
2022-10-13T05:44:51.295Z,17.00
2022-10-13T05:49:52.949Z,19.83
2022-10-13T05:54:58.811Z,22.30
2022-10-13T06:00:04.763Z,20.88
2022-10-13T06:05:17.554Z,18.83
2022-10-13T06:10:19.379Z,22.33
2022-10-13T06:15:25.656Z,21.00
2022-10-13T06:20:31.171Z,20.70
2022-10-13T06:25:32.843Z,22.20
2022-10-13T06:30:34.487Z,20.63
2022-10-13T06:35:36.508Z,19.27
2022-10-13T06:40:38.207Z,23.27
2022-10-13T06:45:40.095Z,18.25
2022-10-13T06:50:42.974Z,17.67
2022-10-13T06:55:47.100Z,17.65
2022-10-13T07:00:52.105Z,16.90
2022-10-13T07:05:53.895Z,18.05
2022-10-13T07:10:55.604Z,21.67
2022-10-13T07:15:57.252Z,16.85
2022-10-13T07:21:00.081Z,14.63
2022-10-13T07:26:01.877Z,15.18
2022-10-13T07:31:13.616Z,15.27
2022-10-13T07:36:15.243Z,16.45
2022-10-13T07:41:17.123Z,16.08
2022-10-13T07:46:18.707Z,17.20
2022-10-13T07:51:21.678Z,16.90
2022-10-13T07:56:23.380Z,18.27
2022-10-13T08:01:25.072Z,15.98
2022-10-13T08:06:26.903Z,14.43
2022-10-13T08:11:32.801Z,15.35
2022-10-13T08:16:34.376Z,13.82
2022-10-13T08:21:57.441Z,10.98
2022-10-13T08:26:58.893Z,12.63
2022-10-13T08:32:00.774Z,13.65
2022-10-13T08:37:02.791Z,12.63
2022-10-13T08:42:14.610Z,20.52
2022-10-13T08:47:38.720Z,14.80
2022-10-13T08:53:05.136Z,13.52
2022-10-13T08:58:25.588Z,11.10
2022-10-13T09:03:29.626Z,9.63
2022-10-13T09:08:39.711Z,17.55
2022-10-13T09:13:41.398Z,11.20
2022-10-13T09:18:43.126Z,10.90
2022-10-13T09:23:54.230Z,15.95
2022-10-13T09:28:56.054Z,11.02
2022-10-13T09:34:09.209Z,9.68
2022-10-13T09:39:16.029Z,5.80
2022-10-13T09:44:31.994Z,6.30
2022-10-13T09:49:39.773Z,7.47
2022-10-13T09:54:51.507Z,14.70
2022-10-13T10:00:12.676Z,11.60
2022-10-13T10:05:44.769Z,8.15
2022-10-13T10:10:47.490Z,7.45
2022-10-13T10:15:57.926Z,9.60
2022-10-13T10:21:12.163Z,4.93
2022-10-13T10:26:32.367Z,5.55
2022-10-13T10:31:53.017Z,3.78
2022-10-13T10:42:42.947Z,7.70
2022-10-13T10:47:49.415Z,16.97
2022-10-13T10:53:03.045Z,10.75
2022-10-13T10:58:10.762Z,2.80
2022-10-13T11:03:49.850Z,5.38
2022-10-13T11:08:52.045Z,10.40
2022-10-13T11:13:58.434Z,3.33
2022-10-13T11:19:09.143Z,7.25
2022-10-13T11:24:33.715Z,4.38
2022-10-13T11:29:44.832Z,5.53
2022-10-13T11:35:06.678Z,7.60
2022-10-13T11:40:08.445Z,3.25
2022-10-13T11:45:34.704Z,2.33
2022-10-13T11:50:57.670Z,2.30
2022-10-13T11:56:03.592Z,5.57
2022-10-13T12:01:11.664Z,7.40
2022-10-13T12:06:16.069Z,5.72
2022-10-13T12:11:26.764Z,3.30
2022-10-13T12:16:29.502Z,7.30
2022-10-13T12:21:31.369Z,3.60
2022-10-13T12:26:33.057Z,2.85
2022-10-13T12:31:46.586Z,4.43
2022-10-13T12:37:28.494Z,5.78
2022-10-13T12:42:36.210Z,5.05
2022-10-13T12:47:39.432Z,7.03
2022-10-13T12:52:41.134Z,7.88
2022-10-13T12:57:45.738Z,5.72
2022-10-13T13:02:53.836Z,5.88
2022-10-13T13:07:55.535Z,4.88
2022-10-13T13:13:14.024Z,2.92
2022-10-13T13:18:32.092Z,2.55
2022-10-13T13:23:35.408Z,3.65
2022-10-13T13:28:38.369Z,5.73
2022-10-13T13:33:40.474Z,3.13
2022-10-13T13:38:42.198Z,3.10
2022-10-13T13:43:45.092Z,4.57
2022-10-13T13:48:46.641Z,6.22
2022-10-13T13:53:48.402Z,11.13
2022-10-13T13:58:50.117Z,16.15
2022-10-13T14:03:51.934Z,15.48
2022-10-13T14:08:53.537Z,2.67
2022-10-13T14:13:57.980Z,12.48
2022-10-13T14:19:02.123Z,3.25
2022-10-13T14:24:04.492Z,3.85
2022-10-13T14:29:06.314Z,22.92
2022-10-13T14:34:08.162Z,13.95
2022-10-13T14:39:10.431Z,32.65
2022-10-13T14:44:13.870Z,11.13
2022-10-13T14:49:19.883Z,11.40
2022-10-13T14:54:23.407Z,7.47
2022-10-13T14:59:25.279Z,4.82
2022-10-13T15:04:26.871Z,3.05
2022-10-13T15:09:38.939Z,4.20
2022-10-13T15:14:50.867Z,4.70
2022-10-13T15:19:52.478Z,3.42
2022-10-13T15:24:54.150Z,2.35
2022-10-13T15:29:55.763Z,2.17
2022-10-13T15:34:57.589Z,2.13
2022-10-13T15:39:59.962Z,5.85
2022-10-13T15:45:10.444Z,4.80
2022-10-13T15:50:12.660Z,3.15
2022-10-13T15:55:14.539Z,2.88
2022-10-13T16:00:16.916Z,7.05
2022-10-13T16:05:19.345Z,3.03
2022-10-13T16:10:20.931Z,5.00
2022-10-13T16:15:23.683Z,2.38
2022-10-13T16:20:25.351Z,3.15
2022-10-13T16:25:27.318Z,4.53
2022-10-13T16:30:30.470Z,3.33
2022-10-13T16:35:32.207Z,4.43
2022-10-13T16:40:33.864Z,4.93
2022-10-13T16:45:55.503Z,4.35
2022-10-13T16:51:00.453Z,8.85
2022-10-13T16:56:06.327Z,19.02
2022-10-13T17:01:10.099Z,13.68
2022-10-13T17:06:13.959Z,9.23
2022-10-13T17:11:21.754Z,9.70
2022-10-13T17:16:24.352Z,8.60
2022-10-13T17:21:25.989Z,8.50
2022-10-13T17:26:27.611Z,7.57
2022-10-13T17:31:29.420Z,9.13
2022-10-13T17:36:36.899Z,8.55
2022-10-13T17:41:44.423Z,11.63
2022-10-13T17:46:47.780Z,8.68
2022-10-13T17:51:52.312Z,12.30
2022-10-13T17:56:55.254Z,8.85
2022-10-13T18:01:57.025Z,6.85
2022-10-13T18:06:58.664Z,7.05
2022-10-13T18:12:00.274Z,13.88
2022-10-13T18:17:02.338Z,12.52
2022-10-13T18:22:06.921Z,12.73
2022-10-13T18:27:08.957Z,13.57
2022-10-13T18:32:12.290Z,13.73
2022-10-13T18:37:13.886Z,16.10
2022-10-13T18:42:15.558Z,40.13
2022-10-13T18:47:17.253Z,20.63
2022-10-13T18:52:19.480Z,24.75
2022-10-13T18:57:21.663Z,15.15
2022-10-13T19:02:23.847Z,13.63
2022-10-13T19:07:25.538Z,13.38
2022-10-13T19:12:28.432Z,11.52
2022-10-13T19:17:29.982Z,13.32
2022-10-13T19:22:31.956Z,12.57
2022-10-13T19:27:33.552Z,13.80
2022-10-13T19:32:38.241Z,13.20
2022-10-13T19:37:40.042Z,13.88
2022-10-13T19:42:41.722Z,13.10
2022-10-13T19:47:43.292Z,14.60
2022-10-13T19:52:45.103Z,14.60
2022-10-13T19:57:46.686Z,15.45
2022-10-13T20:02:48.342Z,14.23
2022-10-13T20:07:50.027Z,13.13
2022-10-13T20:12:51.835Z,11.07
2022-10-13T20:17:53.485Z,9.40
2022-10-13T20:22:55.447Z,7.32
2022-10-13T20:27:57.108Z,8.45
2022-10-13T20:32:59.016Z,8.15
2022-10-13T20:38:00.901Z,8.25
2022-10-13T20:43:02.544Z,9.23
2022-10-13T20:48:04.178Z,11.65
2022-10-13T20:53:06.584Z,11.05
2022-10-13T20:58:08.295Z,10.32
2022-10-13T21:03:09.882Z,12.70
2022-10-13T21:08:11.523Z,11.55
2022-10-13T21:13:14.534Z,15.48
2022-10-13T21:18:16.913Z,16.45
2022-10-13T21:23:18.622Z,15.90
2022-10-13T21:28:20.635Z,13.73
2022-10-13T21:33:23.219Z,14.75
2022-10-13T21:38:29.034Z,14.38
2022-10-13T21:43:30.770Z,15.00
2022-10-13T21:48:32.316Z,14.63
2022-10-13T21:53:33.887Z,13.95
2022-10-13T21:58:35.917Z,13.77
2022-10-13T22:03:37.747Z,13.57
2022-10-13T22:08:40.920Z,13.65
2022-10-13T22:13:58.705Z,15.50
2022-10-13T22:19:00.828Z,16.33
2022-10-13T22:24:04.919Z,14.90
2022-10-13T22:29:08.134Z,14.73
2022-10-13T22:34:11.466Z,15.35
2022-10-13T22:39:14.219Z,17.48
2022-10-13T22:44:15.913Z,16.83
2022-10-13T22:49:17.753Z,16.13
2022-10-13T22:54:19.460Z,15.48
2022-10-13T22:59:21.094Z,13.93
2022-10-13T23:04:22.662Z,14.35
2022-10-13T23:09:24.229Z,13.52
2022-10-13T23:14:25.911Z,13.38
2022-10-13T23:19:27.548Z,12.82
2022-10-13T23:24:30.487Z,13.05
2022-10-13T23:29:32.091Z,12.65
2022-10-13T23:34:33.866Z,13.98
2022-10-13T23:39:35.535Z,14.68
2022-10-13T23:44:37.197Z,12.75
2022-10-13T23:49:38.794Z,13.70
2022-10-13T23:54:40.430Z,13.15
2022-10-13T23:59:42.020Z,13.63
